フィレンツェ の空港の天気 - METARとTAF

フィレンツェ・ペレトラ空港 ( LIRQ / FLR ) - イタリア フィレンツェ
飛行場実況気象(Metar)
観測時間01/20 05:50 CET (01/20 04:50 UTC)
風向・風速静穏 0m/s
視程100m
天気現象
全天を覆う雲 雲底高度 不明
気温7℃
湿度100%
気圧1012hPa
METARLIRQ 200450Z 00000KT 0100 R05/0550N FG VV/// 07/07 Q1012
過去の天気等 Google飛行場航空写真 Wunderground天気予報

過去48時間のMETAR

飛行場予報(TAF)
発表時間: 1/20 02:54 CET (1/20 01:54 UTC)
予報対象時間: 20日3時 CET ~ 21日1時 CET
風向・風速不定 3m/s
視程600m
天気現象
全天の8割程度の雲 雲底高度 180m
20日3時 CET ~ 20日7時 CET に一時的に
視程150m
20日7時 CET ~ 20日10時 CET に徐々に
視程7,000m
20日19時 CET ~ 20日21時 CET に徐々に
風向・風速南西 7m/s
TAF AMD LIRQ 200154Z 2002/2024 VRB06KT 0600 FG BKN006
TEMPO 2002/2006 0150
BECMG 2006/2009 7000
BECMG 2018/2020 22014KT